createdAt,value
2019-04-28T00:00:47.530Z,5.13
2019-04-28T00:03:14.354Z,4.73
2019-04-28T00:05:41.573Z,5.70
2019-04-28T00:08:08.288Z,5.30
2019-04-28T00:10:35.111Z,5.90
2019-04-28T00:13:01.965Z,6.17
2019-04-28T00:15:28.617Z,5.67
2019-04-28T00:17:55.442Z,5.50
2019-04-28T00:20:33.045Z,6.87
2019-04-28T00:23:09.456Z,5.00
2019-04-28T00:25:41.082Z,5.57
2019-04-28T00:28:11.491Z,5.93
2019-04-28T00:30:38.021Z,6.23
2019-04-28T00:33:04.639Z,6.90
2019-04-28T00:35:31.905Z,7.57
2019-04-28T00:38:01.431Z,7.17
2019-04-28T00:40:28.229Z,6.50
2019-04-28T00:42:54.903Z,7.60
2019-04-28T00:45:21.577Z,8.53
2019-04-28T00:47:48.281Z,8.47
2019-04-28T00:50:15.184Z,8.30
2019-04-28T00:52:41.988Z,11.57
2019-04-28T00:55:10.659Z,9.70
2019-04-28T00:57:37.638Z,9.50
2019-04-28T01:00:05.107Z,9.83
2019-04-28T01:02:41.258Z,9.60
2019-04-28T01:05:08.911Z,10.40
2019-04-28T01:07:35.826Z,9.60
2019-04-28T01:10:03.981Z,9.47
2019-04-28T01:12:31.209Z,9.00
2019-04-28T01:14:59.739Z,9.70
2019-04-28T01:17:34.527Z,9.10
2019-04-28T01:20:03.133Z,9.20
2019-04-28T01:22:30.081Z,9.17
2019-04-28T01:24:57.229Z,10.00
2019-04-28T01:27:50.585Z,9.70
2019-04-28T01:30:44.277Z,11.17
2019-04-28T01:33:17.473Z,11.23
2019-04-28T01:35:44.069Z,10.77
2019-04-28T01:38:12.266Z,10.97
2019-04-28T01:40:39.065Z,9.97
2019-04-28T01:43:05.685Z,9.77
2019-04-28T01:45:32.325Z,9.53
2019-04-28T01:48:00.512Z,9.00
2019-04-28T01:50:27.472Z,9.60
2019-04-28T01:52:54.101Z,8.30
2019-04-28T01:55:20.679Z,9.40
2019-04-28T01:57:47.284Z,7.97
2019-04-28T02:00:22.968Z,11.07
2019-04-28T02:02:43.475Z,10.53
2019-04-28T02:05:10.287Z,9.97
2019-04-28T02:07:36.942Z,10.53
2019-04-28T02:10:04.175Z,10.53
2019-04-28T02:12:30.775Z,10.40
2019-04-28T02:14:57.447Z,10.83
2019-04-28T02:17:24.076Z,9.77
2019-04-28T02:19:51.526Z,9.77
2019-04-28T02:22:32.466Z,9.20
2019-04-28T02:25:00.293Z,10.23
2019-04-28T02:27:27.048Z,9.80
2019-04-28T02:29:54.012Z,8.67
2019-04-28T02:32:24.150Z,9.67
2019-04-28T02:34:50.655Z,9.80
2019-04-28T02:37:20.234Z,11.20
2019-04-28T02:39:46.065Z,11.37
2019-04-28T02:42:12.803Z,9.17
2019-04-28T02:44:40.453Z,8.47
2019-04-28T02:47:10.387Z,9.33
2019-04-28T02:49:43.363Z,9.60
2019-04-28T02:52:20.203Z,9.63
2019-04-28T02:54:46.263Z,9.20
2019-04-28T02:57:12.873Z,9.67
2019-04-28T02:59:40.983Z,10.37
2019-04-28T03:02:10.368Z,9.10
2019-04-28T03:04:36.539Z,9.87
2019-04-28T03:07:03.159Z,9.57
2019-04-28T03:09:30.547Z,9.43
2019-04-28T03:11:57.598Z,10.30
2019-04-28T03:14:24.300Z,12.00
2019-04-28T03:16:51.107Z,10.70
2019-04-28T03:19:20.952Z,10.00
2019-04-28T03:21:46.877Z,10.57
2019-04-28T03:24:13.713Z,11.87
2019-04-28T03:26:56.533Z,10.40
2019-04-28T03:29:35.574Z,12.37
2019-04-28T03:32:30.016Z,10.53
2019-04-28T03:34:53.053Z,12.23
2019-04-28T03:37:17.161Z,11.60
2019-04-28T03:39:43.877Z,11.67
2019-04-28T03:42:11.733Z,11.30
2019-04-28T03:44:40.914Z,12.47
2019-04-28T03:47:07.043Z,11.40
2019-04-28T03:49:34.135Z,12.97
2019-04-28T03:52:05.312Z,11.37
2019-04-28T03:54:32.473Z,15.97
2019-04-28T03:57:01.308Z,13.93
2019-04-28T03:59:27.769Z,12.07
2019-04-28T04:01:59.415Z,12.57
2019-04-28T04:04:23.141Z,11.70
2019-04-28T04:06:50.903Z,14.20
2019-04-28T04:09:18.029Z,12.23
2019-04-28T04:12:03.651Z,13.17
2019-04-28T04:14:44.135Z,13.33
2019-04-28T04:17:15.609Z,12.50
2019-04-28T04:19:42.273Z,12.30
2019-04-28T04:22:10.173Z,12.13
2019-04-28T04:24:37.169Z,13.20
2019-04-28T04:27:03.794Z,12.80
2019-04-28T04:29:30.993Z,14.10
2019-04-28T04:32:13.439Z,13.27
2019-04-28T04:34:26.347Z,15.00
2019-04-28T04:36:53.350Z,15.83
2019-04-28T04:39:20.606Z,17.70
2019-04-28T04:41:47.484Z,13.63
2019-04-28T04:44:14.125Z,12.10
2019-04-28T04:46:41.452Z,12.87
2019-04-28T04:49:10.591Z,14.60
2019-04-28T04:51:36.823Z,12.47
2019-04-28T04:54:03.652Z,12.90
2019-04-28T04:56:30.434Z,12.53
2019-04-28T04:58:57.248Z,12.67
2019-04-28T05:01:46.142Z,12.07
2019-04-28T05:04:21.636Z,12.70
2019-04-28T05:06:49.677Z,11.40
2019-04-28T05:09:16.537Z,11.93
2019-04-28T05:11:43.296Z,13.07
2019-04-28T05:14:11.938Z,10.50
2019-04-28T05:16:39.831Z,11.50
2019-04-28T05:19:06.824Z,10.87
2019-04-28T05:21:33.599Z,10.70
2019-04-28T05:24:23.096Z,9.23
2019-04-28T05:26:51.434Z,10.80
2019-04-28T05:29:19.971Z,11.20
2019-04-28T05:31:46.825Z,12.50
2019-04-28T05:34:13.477Z,10.77
2019-04-28T05:36:44.314Z,10.47
2019-04-28T05:39:10.415Z,15.70
2019-04-28T05:41:37.195Z,11.10
2019-04-28T05:44:03.853Z,12.50
2019-04-28T05:46:30.642Z,11.17
2019-04-28T05:49:19.709Z,11.00
2019-04-28T05:51:47.657Z,12.33
2019-04-28T05:54:21.561Z,10.93
2019-04-28T05:57:06.845Z,12.17
2019-04-28T05:59:47.392Z,13.37
2019-04-28T06:02:21.770Z,11.90
2019-04-28T06:04:49.448Z,13.00
2019-04-28T06:07:25.554Z,13.27
2019-04-28T06:09:53.133Z,15.50
2019-04-28T06:12:20.302Z,17.80
2019-04-28T06:14:49.997Z,18.20
2019-04-28T06:17:16.587Z,18.57
2019-04-28T06:19:43.201Z,20.53
2019-04-28T06:22:09.848Z,18.40
2019-04-28T06:24:36.477Z,17.57
2019-04-28T06:27:03.469Z,19.90
2019-04-28T06:29:30.092Z,18.50
2019-04-28T06:31:56.713Z,19.03
2019-04-28T06:34:23.342Z,17.57
2019-04-28T06:36:49.993Z,16.50
2019-04-28T06:39:16.635Z,17.40
2019-04-28T06:41:43.296Z,18.37
2019-04-28T06:44:10.166Z,19.00
2019-04-28T06:46:36.744Z,18.43
2019-04-28T06:49:03.787Z,18.53
2019-04-28T06:51:30.461Z,16.50
2019-04-28T06:53:57.039Z,17.03
2019-04-28T06:56:23.729Z,16.50
2019-04-28T06:58:58.896Z,17.07
2019-04-28T07:01:19.037Z,15.77
2019-04-28T07:03:45.944Z,15.90
2019-04-28T07:06:12.568Z,14.90
2019-04-28T07:08:39.240Z,21.33
2019-04-28T07:11:05.857Z,14.93
2019-04-28T07:13:32.532Z,14.50
2019-04-28T07:15:59.179Z,15.53
2019-04-28T07:18:25.797Z,12.50
2019-04-28T07:20:58.997Z,14.43
2019-04-28T07:23:25.652Z,13.20
2019-04-28T07:25:52.385Z,12.77
2019-04-28T07:28:19.049Z,11.93
2019-04-28T07:30:45.793Z,12.20
2019-04-28T07:33:12.627Z,10.43
2019-04-28T07:35:39.253Z,10.20
2019-04-28T07:38:05.852Z,12.40
2019-04-28T07:40:32.549Z,11.43
2019-04-28T07:42:59.711Z,12.00
2019-04-28T07:45:26.461Z,9.30
2019-04-28T07:47:53.153Z,9.87
2019-04-28T07:50:19.853Z,19.17
2019-04-28T07:52:51.768Z,11.57
2019-04-28T07:55:18.664Z,14.13
2019-04-28T07:57:45.333Z,16.03
2019-04-28T08:00:14.657Z,15.20
2019-04-28T08:02:41.352Z,12.13
2019-04-28T08:05:08.339Z,9.80
2019-04-28T08:07:35.144Z,10.80
2019-04-28T08:10:01.878Z,10.67
2019-04-28T08:12:28.604Z,8.93
2019-04-28T08:14:55.245Z,7.60
2019-04-28T08:17:22.121Z,9.57
2019-04-28T08:19:48.748Z,10.10
2019-04-28T08:22:16.213Z,7.60
2019-04-28T08:24:42.836Z,7.90
2019-04-28T08:27:09.506Z,9.97
2019-04-28T08:29:36.420Z,7.50
2019-04-28T08:32:32.280Z,6.90
2019-04-28T08:34:59.096Z,6.70
2019-04-28T08:37:25.869Z,7.20
2019-04-28T08:39:52.509Z,6.30
2019-04-28T08:42:19.120Z,5.50
2019-04-28T08:44:45.805Z,6.10
2019-04-28T08:47:12.440Z,6.20
2019-04-28T08:49:39.321Z,10.93
2019-04-28T08:52:05.992Z,10.90
2019-04-28T08:54:32.740Z,10.30
2019-04-28T08:56:59.373Z,6.43
2019-04-28T08:59:26.022Z,7.00
2019-04-28T09:01:52.837Z,8.97
2019-04-28T09:04:19.899Z,6.30
2019-04-28T09:06:46.604Z,7.10
2019-04-28T09:09:15.369Z,9.77
2019-04-28T09:11:42.126Z,5.70
2019-04-28T09:14:08.832Z,5.30
2019-04-28T09:16:35.841Z,5.20
2019-04-28T09:19:02.709Z,7.33
2019-04-28T09:21:29.835Z,5.90
2019-04-28T09:23:56.583Z,7.37
2019-04-28T09:26:23.228Z,5.10
2019-04-28T09:28:50.069Z,5.03
2019-04-28T09:31:16.708Z,6.00
2019-04-28T09:33:45.042Z,5.50
2019-04-28T09:36:11.987Z,6.43
2019-04-28T09:38:38.862Z,5.20
2019-04-28T09:41:05.579Z,4.70
2019-04-28T09:43:54.924Z,4.10
2019-04-28T09:46:33.141Z,9.33
2019-04-28T09:48:59.873Z,4.70
2019-04-28T09:51:26.712Z,3.77
2019-04-28T09:53:54.871Z,3.90
2019-04-28T09:56:21.507Z,4.37
2019-04-28T09:58:48.125Z,4.77
2019-04-28T10:01:14.758Z,4.50
2019-04-28T10:03:41.405Z,5.70
2019-04-28T10:06:08.133Z,3.13
2019-04-28T10:08:36.617Z,3.97
2019-04-28T10:11:03.601Z,4.23
2019-04-28T10:13:30.371Z,5.33
2019-04-28T10:15:57.105Z,4.40
2019-04-28T10:18:23.932Z,3.60
2019-04-28T10:20:50.603Z,4.27
2019-04-28T10:23:17.267Z,5.30
2019-04-28T10:25:44.317Z,5.30
2019-04-28T10:28:11.090Z,4.37
2019-04-28T10:30:37.880Z,5.00
2019-04-28T10:33:05.511Z,4.30
2019-04-28T10:35:32.108Z,4.50
2019-04-28T10:37:58.755Z,3.50
2019-04-28T10:40:42.187Z,3.10
2019-04-28T10:43:08.833Z,4.10
2019-04-28T10:45:45.003Z,4.60
2019-04-28T10:48:12.149Z,3.87
2019-04-28T10:50:38.753Z,6.77
2019-04-28T10:53:05.523Z,5.70
2019-04-28T10:55:32.171Z,6.07
2019-04-28T10:57:59.176Z,11.47
2019-04-28T11:00:28.489Z,4.43
2019-04-28T11:02:55.096Z,3.50
2019-04-28T11:05:30.516Z,3.73
2019-04-28T11:07:57.622Z,3.33
2019-04-28T11:10:24.237Z,3.60
2019-04-28T11:12:50.880Z,6.23
2019-04-28T11:15:25.227Z,4.40
2019-04-28T11:17:51.853Z,5.20
2019-04-28T11:20:18.812Z,4.10
2019-04-28T11:22:45.794Z,3.50
2019-04-28T11:25:12.808Z,3.50
2019-04-28T11:27:40.215Z,7.07
2019-04-28T11:30:07.496Z,3.67
2019-04-28T11:32:34.183Z,2.60
2019-04-28T11:35:20.619Z,3.63
2019-04-28T11:37:37.114Z,3.17
2019-04-28T11:40:04.340Z,3.63
2019-04-28T11:42:30.933Z,2.77
2019-04-28T11:44:57.620Z,2.13
2019-04-28T11:47:24.688Z,2.67
2019-04-28T11:49:51.269Z,2.53
2019-04-28T11:52:17.936Z,2.90
2019-04-28T11:54:44.523Z,3.00
2019-04-28T11:57:11.533Z,3.47
2019-04-28T11:59:38.200Z,2.97
2019-04-28T12:02:05.323Z,4.23
2019-04-28T12:04:32.000Z,3.07
2019-04-28T12:06:58.698Z,2.93
2019-04-28T12:09:31.220Z,3.37
2019-04-28T12:11:58.352Z,3.40
2019-04-28T12:14:29.967Z,4.07
2019-04-28T12:17:15.464Z,3.40
2019-04-28T12:19:51.195Z,4.90
2019-04-28T12:22:17.800Z,3.87
2019-04-28T12:24:44.401Z,4.07
2019-04-28T12:27:11.028Z,4.07
2019-04-28T12:29:37.727Z,4.93
2019-04-28T12:32:04.377Z,4.00
2019-04-28T12:34:31.026Z,5.07
2019-04-28T12:36:57.751Z,3.10
2019-04-28T12:39:24.332Z,4.00
2019-04-28T12:41:50.982Z,3.20
2019-04-28T12:44:17.640Z,3.87
2019-04-28T12:46:44.284Z,4.10
2019-04-28T12:49:20.294Z,4.50
2019-04-28T12:51:47.046Z,3.93
2019-04-28T12:54:15.831Z,3.30
2019-04-28T12:56:42.702Z,4.30
2019-04-28T12:59:14.973Z,2.93
2019-04-28T13:01:59.643Z,4.23
2019-04-28T13:04:31.033Z,4.80
2019-04-28T13:07:01.543Z,4.47
2019-04-28T13:09:28.393Z,3.60
2019-04-28T13:11:55.157Z,4.00
2019-04-28T13:14:21.839Z,3.47
2019-04-28T13:16:48.485Z,3.57
2019-04-28T13:19:15.112Z,4.17
2019-04-28T13:21:41.895Z,3.67
2019-04-28T13:24:08.517Z,4.93
2019-04-28T13:26:35.221Z,4.43
2019-04-28T13:29:01.980Z,4.60
2019-04-28T13:31:28.556Z,3.60
2019-04-28T13:33:56.975Z,3.53
2019-04-28T13:36:23.756Z,3.60
2019-04-28T13:38:50.400Z,3.50
2019-04-28T13:41:17.042Z,4.30
2019-04-28T13:43:43.757Z,4.00
2019-04-28T13:46:10.425Z,4.63
2019-04-28T13:48:37.030Z,4.73
2019-04-28T13:51:03.758Z,4.67
2019-04-28T13:53:30.560Z,3.93
2019-04-28T13:56:03.169Z,4.20
2019-04-28T13:58:32.095Z,3.73
2019-04-28T14:01:11.119Z,3.33
2019-04-28T14:03:52.732Z,3.53
2019-04-28T14:06:28.028Z,3.17
2019-04-28T14:08:48.711Z,3.80
2019-04-28T14:11:15.438Z,4.40
2019-04-28T14:13:42.181Z,4.00
2019-04-28T14:16:08.939Z,3.17
2019-04-28T14:18:35.661Z,2.80
2019-04-28T14:21:02.411Z,3.23
2019-04-28T14:23:29.163Z,3.30
2019-04-28T14:25:56.002Z,2.80
2019-04-28T14:28:22.670Z,4.00
2019-04-28T14:30:49.803Z,2.70
2019-04-28T14:33:16.825Z,2.63
2019-04-28T14:35:43.603Z,3.00
2019-04-28T14:38:10.323Z,3.23
2019-04-28T14:40:37.060Z,2.63
2019-04-28T14:43:03.718Z,3.50
2019-04-28T14:45:30.504Z,2.57
2019-04-28T14:47:57.483Z,3.40
2019-04-28T14:50:24.160Z,3.60
2019-04-28T14:52:50.811Z,3.70
2019-04-28T14:55:17.658Z,4.70
2019-04-28T14:57:44.385Z,4.50
2019-04-28T15:00:14.057Z,5.70
2019-04-28T15:03:03.225Z,5.70
2019-04-28T15:05:46.333Z,6.30
2019-04-28T15:08:22.992Z,7.23
2019-04-28T15:11:00.510Z,5.57
2019-04-28T15:13:27.438Z,3.37
2019-04-28T15:15:54.342Z,3.53
2019-04-28T15:18:21.096Z,4.30
2019-04-28T15:20:48.232Z,3.60
2019-04-28T15:23:15.016Z,3.60
2019-04-28T15:25:41.614Z,4.17
2019-04-28T15:28:08.613Z,2.87
2019-04-28T15:30:35.208Z,3.13
2019-04-28T15:33:02.457Z,3.50
2019-04-28T15:35:29.336Z,3.03
2019-04-28T15:37:56.033Z,4.03
2019-04-28T15:40:22.721Z,3.03
2019-04-28T15:42:50.281Z,3.00
2019-04-28T15:45:17.204Z,2.30
2019-04-28T15:47:43.853Z,2.57
2019-04-28T15:50:10.815Z,2.30
2019-04-28T15:52:37.415Z,3.13
2019-04-28T15:55:05.704Z,2.27
2019-04-28T15:57:32.374Z,2.10
2019-04-28T15:59:59.020Z,2.20
2019-04-28T16:02:25.660Z,2.37
2019-04-28T16:04:52.424Z,1.83
2019-04-28T16:07:24.977Z,1.80
2019-04-28T16:09:47.715Z,1.90
2019-04-28T16:12:14.396Z,2.30
2019-04-28T16:14:41.332Z,2.00
2019-04-28T16:17:08.043Z,2.20
2019-04-28T16:19:34.845Z,1.50
2019-04-28T16:22:01.546Z,1.37
2019-04-28T16:24:28.731Z,2.33
2019-04-28T16:26:55.385Z,2.93
2019-04-28T16:29:22.014Z,2.20
2019-04-28T16:31:48.661Z,1.80
2019-04-28T16:34:15.311Z,2.43
2019-04-28T16:36:42.223Z,2.93
2019-04-28T16:39:09.092Z,2.80
2019-04-28T16:41:44.969Z,2.43
2019-04-28T16:44:14.462Z,3.57
2019-04-28T16:46:41.168Z,2.47
2019-04-28T16:49:07.903Z,4.80
2019-04-28T16:51:34.583Z,4.23
2019-04-28T16:54:01.283Z,5.90
2019-04-28T16:56:53.807Z,5.33
2019-04-28T16:59:35.544Z,4.00
2019-04-28T17:02:12.803Z,4.40
2019-04-28T17:04:39.533Z,3.67
2019-04-28T17:07:06.277Z,4.90
2019-04-28T17:09:33.191Z,3.03
2019-04-28T17:11:59.909Z,4.17
2019-04-28T17:14:26.682Z,3.20
2019-04-28T17:16:53.825Z,4.33
2019-04-28T17:19:20.884Z,5.33
2019-04-28T17:21:48.642Z,6.23
2019-04-28T17:24:15.380Z,9.10
2019-04-28T17:26:41.980Z,2.97
2019-04-28T17:29:08.684Z,3.73
2019-04-28T17:31:35.570Z,6.07
2019-04-28T17:34:02.561Z,5.03
2019-04-28T17:36:29.770Z,5.80
2019-04-28T17:38:56.389Z,8.90
2019-04-28T17:41:23.587Z,7.50
2019-04-28T17:43:50.578Z,4.97
2019-04-28T17:46:17.287Z,13.73
2019-04-28T17:48:50.416Z,8.23
2019-04-28T17:51:17.329Z,3.90
2019-04-28T17:53:44.058Z,5.67
2019-04-28T17:56:10.693Z,7.37
2019-04-28T17:58:38.432Z,8.07
2019-04-28T18:01:25.829Z,6.57
2019-04-28T18:04:02.719Z,4.47
2019-04-28T18:06:30.057Z,5.47
2019-04-28T18:08:57.013Z,23.50
2019-04-28T18:11:23.641Z,10.67
2019-04-28T18:13:55.054Z,6.80
2019-04-28T18:16:38.010Z,22.00
2019-04-28T18:19:08.004Z,20.07
2019-04-28T18:21:35.126Z,16.70
2019-04-28T18:24:01.745Z,7.00
2019-04-28T18:26:28.339Z,5.70
2019-04-28T18:28:55.012Z,25.53
2019-04-28T18:31:37.906Z,5.40
2019-04-28T18:34:13.017Z,13.43
2019-04-28T18:36:46.772Z,5.37
2019-04-28T18:39:49.457Z,5.60
2019-04-28T18:42:28.509Z,12.67
2019-04-28T18:44:55.245Z,5.90
2019-04-28T18:47:21.871Z,8.20
2019-04-28T18:49:48.468Z,7.60
2019-04-28T18:52:16.325Z,7.47
2019-04-28T18:54:43.013Z,4.60
2019-04-28T18:57:09.608Z,3.07
2019-04-28T18:59:36.348Z,7.33
2019-04-28T19:02:15.441Z,2.73
2019-04-28T19:04:42.249Z,3.63
2019-04-28T19:07:11.361Z,3.80
2019-04-28T19:09:53.169Z,5.67
2019-04-28T19:12:33.323Z,2.80
2019-04-28T19:15:25.956Z,3.20
2019-04-28T19:18:00.085Z,4.00
2019-04-28T19:20:26.773Z,3.50
2019-04-28T19:22:53.480Z,3.80
2019-04-28T19:25:21.377Z,3.20
2019-04-28T19:27:52.321Z,3.10
2019-04-28T19:30:18.919Z,4.27
2019-04-28T19:32:49.226Z,3.80
2019-04-28T19:35:16.150Z,3.87
2019-04-28T19:37:42.893Z,4.13
2019-04-28T19:40:09.592Z,4.17
2019-04-28T19:42:36.350Z,3.70
2019-04-28T19:45:03.835Z,3.70
2019-04-28T19:47:30.454Z,4.83
2019-04-28T19:49:57.207Z,7.43
2019-04-28T19:52:23.984Z,7.00
2019-04-28T19:55:08.008Z,6.73
2019-04-28T19:57:41.403Z,6.77
2019-04-28T20:00:23.850Z,5.13
2019-04-28T20:02:49.599Z,5.77
2019-04-28T20:05:16.241Z,7.53
2019-04-28T20:07:42.879Z,5.43
2019-04-28T20:10:09.941Z,5.73
2019-04-28T20:12:36.571Z,6.37
2019-04-28T20:15:04.454Z,5.13
2019-04-28T20:17:31.385Z,5.20
2019-04-28T20:19:58.072Z,8.20
2019-04-28T20:22:24.860Z,11.60
2019-04-28T20:24:51.657Z,8.53
2019-04-28T20:27:18.673Z,20.23
2019-04-28T20:29:45.669Z,6.07
2019-04-28T20:32:12.365Z,11.43
2019-04-28T20:34:39.074Z,16.33
2019-04-28T20:37:12.504Z,8.00
2019-04-28T20:39:39.380Z,14.80
2019-04-28T20:42:24.480Z,57.20
2019-04-28T20:44:51.130Z,22.40
2019-04-28T20:47:18.140Z,12.67
2019-04-28T20:49:44.976Z,7.90
2019-04-28T20:52:11.609Z,7.27
2019-04-28T20:54:38.637Z,6.60
2019-04-28T20:57:05.587Z,6.10
2019-04-28T20:59:32.408Z,5.60
2019-04-28T21:01:59.064Z,5.60
2019-04-28T21:04:25.743Z,4.33
2019-04-28T21:06:52.494Z,5.93
2019-04-28T21:09:19.173Z,5.57
2019-04-28T21:11:45.810Z,5.33
2019-04-28T21:14:12.513Z,4.57
2019-04-28T21:16:39.191Z,5.47
2019-04-28T21:19:07.316Z,4.33
2019-04-28T21:21:34.016Z,6.47
2019-04-28T21:24:00.725Z,6.10
2019-04-28T21:26:27.328Z,4.27
2019-04-28T21:28:54.478Z,4.60
2019-04-28T21:31:21.316Z,4.50
2019-04-28T21:33:48.122Z,5.50
2019-04-28T21:36:14.785Z,6.47
2019-04-28T21:38:41.388Z,5.20
2019-04-28T21:41:07.995Z,6.50
2019-04-28T21:43:41.416Z,5.67
2019-04-28T21:46:15.325Z,5.80
2019-04-28T21:48:50.325Z,5.23
2019-04-28T21:51:16.976Z,6.53
2019-04-28T21:53:43.600Z,6.53
2019-04-28T21:56:10.218Z,8.03
2019-04-28T21:58:37.147Z,4.90
2019-04-28T22:01:04.314Z,4.90
2019-04-28T22:03:31.126Z,5.63
2019-04-28T22:05:57.769Z,4.83
2019-04-28T22:08:24.661Z,6.33
2019-04-28T22:10:51.827Z,5.13
2019-04-28T22:13:18.489Z,5.13
2019-04-28T22:15:45.147Z,4.20
2019-04-28T22:18:11.740Z,5.77
2019-04-28T22:20:38.371Z,5.00
2019-04-28T22:23:18.036Z,6.10
2019-04-28T22:25:36.173Z,4.70
2019-04-28T22:28:02.942Z,5.23
2019-04-28T22:30:29.666Z,5.07
2019-04-28T22:32:56.369Z,5.20
2019-04-28T22:35:23.077Z,5.73
2019-04-28T22:37:49.739Z,5.93
2019-04-28T22:40:16.440Z,5.93
2019-04-28T22:42:43.036Z,6.77
2019-04-28T22:45:11.020Z,6.50
2019-04-28T22:47:37.624Z,7.20
2019-04-28T22:50:07.067Z,6.70
2019-04-28T22:52:32.924Z,5.63
2019-04-28T22:55:19.269Z,5.33
2019-04-28T22:58:05.639Z,6.50
2019-04-28T23:00:51.302Z,6.47
2019-04-28T23:03:28.367Z,6.47
2019-04-28T23:05:55.058Z,6.00
2019-04-28T23:08:21.790Z,6.20
2019-04-28T23:10:48.456Z,6.63
2019-04-28T23:13:16.182Z,5.40
2019-04-28T23:15:43.201Z,6.23
2019-04-28T23:18:10.125Z,5.67
2019-04-28T23:20:39.217Z,5.20
2019-04-28T23:23:06.851Z,5.37
2019-04-28T23:25:34.336Z,5.50
2019-04-28T23:28:01.552Z,5.83
2019-04-28T23:30:37.762Z,4.97
2019-04-28T23:33:04.512Z,5.87
2019-04-28T23:35:31.177Z,5.37
2019-04-28T23:37:57.972Z,5.60
2019-04-28T23:40:24.581Z,5.50
2019-04-28T23:42:56.249Z,6.23
2019-04-28T23:45:22.898Z,6.10
2019-04-28T23:47:49.588Z,6.23
2019-04-28T23:50:19.214Z,5.47
2019-04-28T23:53:03.707Z,6.07
2019-04-28T23:55:30.334Z,6.40
2019-04-28T23:57:57.239Z,8.00
